Time;durP1;ratioP1;P1;durP2;ratioP2;P2;SDS_P1;SDS_P2;PMS_P1;PMS_P2;Temp;Humidity;BMP_temperature;BMP_pressure;BME280_temperature;BME280_humidity;BME280_pressure;Samples;Min_cycle;Max_cycle;Signal;HPM_P1;HPM_P2
2023/02/25 00:01:57;;;;;;;15.90;11.17;;;;;;;;;;5115727;28;20669;-82
2023/02/25 00:04:27;;;;;;;14.37;10.87;;;;;;;;;;5111170;28;20206;-83
2023/02/25 00:06:54;;;;;;;17.40;10.93;;;;;;;;;;5095230;28;20636;-82
2023/02/25 00:09:22;;;;;;;16.60;10.90;;;;;;;;;;5094578;28;20200;-82
2023/02/25 00:11:49;;;;;;;14.50;10.10;;;;;;;;;;5107589;28;20268;-82
2023/02/25 00:14:16;;;;;;;13.07;10.57;;;;;;;;;;5115017;28;20210;-82
2023/02/25 00:16:42;;;;;;;13.57;11.07;;;;;;;;;;5114934;28;20199;-81
2023/02/25 00:19:10;;;;;;;18.20;12.03;;;;;;;;;;5114796;28;20231;-82
2023/02/25 00:21:36;;;;;;;20.20;13.77;;;;;;;;;;5115424;28;20204;-82
2023/02/25 00:24:04;;;;;;;18.30;12.77;;;;;;;;;;5115036;28;20203;-82
2023/02/25 00:26:32;;;;;;;17.37;12.57;;;;;;;;;;5114703;28;20203;-82
2023/02/25 00:28:58;;;;;;;17.63;11.17;;;;;;;;;;5114848;28;20267;-82
2023/02/25 00:31:26;;;;;;;19.23;13.17;;;;;;;;;;5101499;28;20213;-82
2023/02/25 00:33:53;;;;;;;14.63;10.97;;;;;;;;;;5114500;28;20199;-86
2023/02/25 00:36:22;;;;;;;13.50;10.63;;;;;;;;;;5115070;28;20207;-82
2023/02/25 00:38:49;;;;;;;16.77;11.53;;;;;;;;;;5094116;28;20227;-82
2023/02/25 00:41:17;;;;;;;14.53;10.63;;;;;;;;;;5108826;28;20207;-82
2023/02/25 00:43:53;;;;;;;18.83;14.40;;;;;;;;;;5107027;28;20211;-82
2023/02/25 00:46:20;;;;;;;20.63;13.87;;;;;;;;;;5109982;28;20258;-82
2023/02/25 00:48:47;;;;;;;19.93;12.17;;;;;;;;;;5114308;28;20211;-83
2023/02/25 00:51:15;;;;;;;19.03;12.87;;;;;;;;;;5111772;28;20203;-83
2023/02/25 00:53:42;;;;;;;16.07;11.70;;;;;;;;;;5103641;28;20260;-83
2023/02/25 00:56:13;;;;;;;19.87;13.97;;;;;;;;;;5100653;28;20208;-82
2023/02/25 00:58:40;;;;;;;13.73;10.60;;;;;;;;;;5114151;28;20280;-83
2023/02/25 01:01:19;;;;;;;14.50;11.10;;;;;;;;;;5100658;28;20203;-83
2023/02/25 01:03:46;;;;;;;15.90;10.27;;;;;;;;;;5101670;28;20212;-82
2023/02/25 01:06:13;;;;;;;19.77;13.60;;;;;;;;;;5107562;28;20200;-83
2023/02/25 01:08:40;;;;;;;15.37;12.50;;;;;;;;;;5106918;28;20207;-82
2023/02/25 01:11:19;;;;;;;16.90;11.83;;;;;;;;;;5113937;28;20245;-83
2023/02/25 01:13:47;;;;;;;16.17;10.70;;;;;;;;;;5100245;28;20683;-83
2023/02/25 01:16:17;;;;;;;15.83;10.90;;;;;;;;;;5114104;28;20214;-82
2023/02/25 01:18:45;;;;;;;17.47;12.30;;;;;;;;;;5100383;28;20557;-83
2023/02/25 01:21:16;;;;;;;18.63;11.47;;;;;;;;;;5113627;28;20214;-83
2023/02/25 01:23:43;;;;;;;16.77;12.10;;;;;;;;;;5114177;28;20206;-82
2023/02/25 01:26:10;;;;;;;15.63;10.97;;;;;;;;;;5113984;28;20290;-83
2023/02/25 01:28:37;;;;;;;16.03;11.27;;;;;;;;;;5113888;28;20199;-82
2023/02/25 01:31:07;;;;;;;16.13;11.13;;;;;;;;;;5102647;28;20211;-83
2023/02/25 01:33:37;;;;;;;19.03;12.20;;;;;;;;;;5106996;28;20283;-83
2023/02/25 01:36:05;;;;;;;19.40;14.60;;;;;;;;;;5093154;28;20697;-83
2023/02/25 01:38:32;;;;;;;381.43;201.07;;;;;;;;;;5106780;28;20204;-83
2023/02/25 01:40:59;;;;;;;239.80;122.27;;;;;;;;;;5105694;28;20220;-83
2023/02/25 01:43:27;;;;;;;80.23;44.70;;;;;;;;;;5099772;28;20260;-82
2023/02/25 01:45:54;;;;;;;66.67;40.43;;;;;;;;;;5113682;28;20200;-82
2023/02/25 01:48:23;;;;;;;46.13;27.97;;;;;;;;;;5113622;28;20227;-82
2023/02/25 01:50:54;;;;;;;28.67;18.30;;;;;;;;;;5099926;28;20208;-83
2023/02/25 01:53:23;;;;;;;26.40;17.93;;;;;;;;;;5113635;28;20207;-82
2023/02/25 01:55:50;;;;;;;22.90;14.57;;;;;;;;;;5113184;28;20594;-83
2023/02/25 01:58:17;;;;;;;19.60;14.63;;;;;;;;;;5113393;28;20269;-82
2023/02/25 02:00:44;;;;;;;29.43;18.83;;;;;;;;;;5111481;28;20697;-83
2023/02/25 02:03:14;;;;;;;30.70;21.47;;;;;;;;;;5101213;28;20203;-82
2023/02/25 02:05:50;;;;;;;21.57;14.23;;;;;;;;;;5110463;28;20574;-82
2023/02/25 02:08:18;;;;;;;17.63;13.10;;;;;;;;;;5103400;28;20211;-82
2023/02/25 02:10:44;;;;;;;17.23;12.77;;;;;;;;;;5098417;28;20685;-82
2023/02/25 02:13:11;;;;;;;19.23;12.00;;;;;;;;;;5112884;28;20260;-82
2023/02/25 02:15:41;;;;;;;16.47;12.43;;;;;;;;;;5112862;28;20203;-82
2023/02/25 02:18:08;;;;;;;15.80;12.07;;;;;;;;;;5112775;28;20624;-82
2023/02/25 02:20:43;;;;;;;16.80;10.97;;;;;;;;;;5112690;28;20310;-82
2023/02/25 02:23:39;;;;;;;15.40;11.10;;;;;;;;;;5112632;28;20202;-82
2023/02/25 02:26:26;;;;;;;19.73;13.80;;;;;;;;;;5092398;28;20223;-82
2023/02/25 02:29:44;;;;;;;16.93;10.63;;;;;;;;;;5105975;28;20234;-82
2023/02/25 02:32:16;;;;;;;15.67;11.93;;;;;;;;;;5098110;28;20235;-83
2023/02/25 02:34:51;;;;;;;15.33;11.17;;;;;;;;;;5098869;28;20211;-83
2023/02/25 02:37:27;;;;;;;21.50;12.57;;;;;;;;;;5112179;28;20211;-83
2023/02/25 02:40:04;;;;;;;20.13;12.10;;;;;;;;;;5111815;28;20292;-82
2023/02/25 02:42:38;;;;;;;19.83;12.07;;;;;;;;;;5101218;28;20334;-82
2023/02/25 02:45:11;;;;;;;13.53;10.87;;;;;;;;;;5110704;28;20206;-82
2023/02/25 02:47:42;;;;;;;21.73;12.77;;;;;;;;;;5112559;28;20250;-82
2023/02/25 02:50:11;;;;;;;22.23;14.70;;;;;;;;;;5112548;28;20256;-82
2023/02/25 02:52:41;;;;;;;20.47;12.80;;;;;;;;;;5111260;28;20211;-81
2023/02/25 02:55:10;;;;;;;19.10;12.40;;;;;;;;;;5100297;28;20208;-82
2023/02/25 02:57:38;;;;;;;19.53;13.00;;;;;;;;;;5112173;28;20214;-83
2023/02/25 03:00:16;;;;;;;17.53;12.23;;;;;;;;;;5112138;28;20227;-83
2023/02/25 03:02:46;;;;;;;20.67;12.27;;;;;;;;;;5111880;28;20209;-82
2023/02/25 03:05:16;;;;;;;19.13;12.07;;;;;;;;;;5100665;28;20208;-82
2023/02/25 03:07:47;;;;;;;16.10;12.43;;;;;;;;;;5096914;28;20738;-82
2023/02/25 03:10:17;;;;;;;16.90;11.47;;;;;;;;;;5099087;28;20200;-82
2023/02/25 03:12:43;;;;;;;20.47;11.60;;;;;;;;;;5111639;28;20210;-82
2023/02/25 03:15:13;;;;;;;16.30;12.07;;;;;;;;;;5111939;28;20215;-82
2023/02/25 03:17:44;;;;;;;19.60;10.90;;;;;;;;;;5098415;28;20209;-82
2023/02/25 03:20:13;;;;;;;23.03;12.87;;;;;;;;;;5098023;28;20227;-82
2023/02/25 03:22:44;;;;;;;15.33;11.10;;;;;;;;;;5103925;28;20269;-83
2023/02/25 03:25:13;;;;;;;18.63;13.93;;;;;;;;;;5107330;28;20231;-82
2023/02/25 03:27:42;;;;;;;20.17;14.70;;;;;;;;;;5111851;28;20265;-82
2023/02/25 03:30:11;;;;;;;19.23;12.63;;;;;;;;;;5111453;28;20226;-82
2023/02/25 03:32:41;;;;;;;17.53;13.17;;;;;;;;;;5091849;28;20652;-82
2023/02/25 03:35:10;;;;;;;21.30;13.93;;;;;;;;;;5108436;28;20264;-82
2023/02/25 03:37:39;;;;;;;23.90;14.97;;;;;;;;;;5111463;28;20746;-82
2023/02/25 03:40:11;;;;;;;18.37;12.97;;;;;;;;;;5111455;28;20294;-82
2023/02/25 03:42:40;;;;;;;18.17;11.37;;;;;;;;;;5111445;28;20744;-82
2023/02/25 03:45:08;;;;;;;14.90;10.07;;;;;;;;;;5111495;28;20637;-82
2023/02/25 03:47:36;;;;;;;15.07;10.33;;;;;;;;;;5111625;28;20227;-81
2023/02/25 03:50:08;;;;;;;17.93;12.87;;;;;;;;;;5098552;28;20211;-82
2023/02/25 03:52:36;;;;;;;21.40;14.10;;;;;;;;;;5111117;28;20207;-83
2023/02/25 03:55:03;;;;;;;32.47;17.87;;;;;;;;;;5111410;28;20204;-82
2023/02/25 03:57:35;;;;;;;21.00;15.23;;;;;;;;;;5096166;28;20212;-82
2023/02/25 04:00:14;;;;;;;16.53;11.73;;;;;;;;;;5100677;28;20238;-82
2023/02/25 04:02:41;;;;;;;19.90;12.03;;;;;;;;;;5111170;28;20199;-82
2023/02/25 04:05:10;;;;;;;13.77;10.70;;;;;;;;;;5099732;28;20196;-83
2023/02/25 04:07:38;;;;;;;17.27;12.63;;;;;;;;;;5096071;28;20227;-82
2023/02/25 04:10:06;;;;;;;17.60;12.87;;;;;;;;;;5111067;28;20728;-82
2023/02/25 04:12:33;;;;;;;14.90;11.97;;;;;;;;;;5111190;28;20200;-82
2023/02/25 04:15:01;;;;;;;18.13;12.00;;;;;;;;;;5099800;28;20200;-82
2023/02/25 04:17:28;;;;;;;19.70;13.33;;;;;;;;;;5109592;28;20210;-82
2023/02/25 04:19:54;;;;;;;33.80;20.87;;;;;;;;;;5099052;28;20286;-82
2023/02/25 04:22:21;;;;;;;18.17;12.30;;;;;;;;;;5109914;28;20743;-81
2023/02/25 04:24:49;;;;;;;15.00;11.07;;;;;;;;;;5111075;28;20689;-82
2023/02/25 04:27:16;;;;;;;13.40;10.70;;;;;;;;;;5105102;28;20393;-82
2023/02/25 04:29:43;;;;;;;14.33;10.73;;;;;;;;;;5091076;28;20215;-82
2023/02/25 04:32:10;;;;;;;20.07;11.90;;;;;;;;;;5110635;28;20750;-82
2023/02/25 04:34:37;;;;;;;16.20;10.97;;;;;;;;;;5114585;28;20690;-83
2023/02/25 04:37:04;;;;;;;16.87;10.90;;;;;;;;;;5113359;28;20187;-83
2023/02/25 04:39:31;;;;;;;13.37;10.07;;;;;;;;;;5114736;28;20226;-82
2023/02/25 04:42:00;;;;;;;16.57;11.47;;;;;;;;;;5114401;28;20200;-82
2023/02/25 04:44:26;;;;;;;20.03;12.43;;;;;;;;;;5114093;28;20686;-83
2023/02/25 04:46:53;;;;;;;15.87;11.47;;;;;;;;;;5102024;28;20263;-82
2023/02/25 04:49:22;;;;;;;17.90;12.03;;;;;;;;;;5113954;28;20674;-82
2023/02/25 04:51:50;;;;;;;13.67;10.77;;;;;;;;;;5114942;28;20252;-82
2023/02/25 04:54:18;;;;;;;19.67;12.87;;;;;;;;;;5100519;28;20203;-82
2023/02/25 04:56:45;;;;;;;16.70;10.43;;;;;;;;;;5114069;28;20222;-82
2023/02/25 04:59:13;;;;;;;16.07;11.70;;;;;;;;;;5114570;28;20641;-83
2023/02/25 05:01:40;;;;;;;18.23;11.90;;;;;;;;;;5114088;28;20227;-83
2023/02/25 05:04:07;;;;;;;18.27;12.97;;;;;;;;;;5114388;28;20269;-82
2023/02/25 05:06:34;;;;;;;16.90;12.07;;;;;;;;;;5105572;28;20232;-85
2023/02/25 05:09:01;;;;;;;26.97;17.63;;;;;;;;;;5095728;28;20204;-81
2023/02/25 05:11:28;;;;;;;24.87;15.07;;;;;;;;;;5104933;28;20199;-80
2023/02/25 05:13:56;;;;;;;68.83;39.60;;;;;;;;;;5110161;28;20706;-81
2023/02/25 05:16:24;;;;;;;54.33;27.73;;;;;;;;;;5093662;28;20294;-85
2023/02/25 05:18:51;;;;;;;42.60;26.73;;;;;;;;;;5095047;28;20263;-87
2023/02/25 05:21:20;;;;;;;30.10;19.37;;;;;;;;;;5106040;28;20227;-85
2023/02/25 05:23:48;;;;;;;26.50;17.10;;;;;;;;;;5095026;28;20261;-85
2023/02/25 05:26:16;;;;;;;24.30;16.10;;;;;;;;;;5112830;28;20253;-88
2023/02/25 05:28:42;;;;;;;22.70;14.80;;;;;;;;;;5108349;28;20220;-88
2023/02/25 05:31:11;;;;;;;28.97;22.23;;;;;;;;;;5114041;28;20563;-87
2023/02/25 05:33:40;;;;;;;38.03;24.47;;;;;;;;;;5108010;28;20199;-87
2023/02/25 05:36:08;;;;;;;53.03;35.10;;;;;;;;;;5099721;28;20641;-87
2023/02/25 05:38:36;;;;;;;54.33;34.90;;;;;;;;;;5113675;28;20208;-87
2023/02/25 05:41:04;;;;;;;44.63;27.00;;;;;;;;;;5099691;28;20705;-87
2023/02/25 05:43:31;;;;;;;33.10;18.63;;;;;;;;;;5113281;28;20238;-87
2023/02/25 05:46:00;;;;;;;23.23;16.43;;;;;;;;;;5107162;28;20196;-88
2023/02/25 05:48:27;;;;;;;36.53;20.27;;;;;;;;;;5093106;28;20263;-88
2023/02/25 05:51:01;;;;;;;17.77;13.23;;;;;;;;;;5112247;28;20207;-90
2023/02/25 05:53:28;;;;;;;18.37;12.33;;;;;;;;;;5100819;28;20199;-90
2023/02/25 05:55:55;;;;;;;20.53;13.70;;;;;;;;;;5094055;28;20204;-90
2023/02/25 05:58:22;;;;;;;22.30;13.60;;;;;;;;;;5093663;28;20287;-89
2023/02/25 06:00:49;;;;;;;20.30;15.03;;;;;;;;;;5100387;28;20280;-88
2023/02/25 06:03:16;;;;;;;51.17;33.20;;;;;;;;;;5113705;28;20272;-88
2023/02/25 06:05:43;;;;;;;29.83;19.63;;;;;;;;;;5113220;28;20256;-89
2023/02/25 06:08:12;;;;;;;22.03;14.27;;;;;;;;;;5098948;28;20197;-85
2023/02/25 06:10:39;;;;;;;26.73;15.80;;;;;;;;;;5098360;28;20272;-87
2023/02/25 06:13:07;;;;;;;37.73;22.33;;;;;;;;;;5102448;28;20294;-89
2023/02/25 06:15:33;;;;;;;36.97;23.77;;;;;;;;;;5112882;28;20560;-88
2023/02/25 06:18:00;;;;;;;28.40;20.77;;;;;;;;;;5106710;28;20273;-81
2023/02/25 06:20:27;;;;;;;29.03;22.27;;;;;;;;;;5104112;28;20230;-90
2023/02/25 06:22:54;;;;;;;20.33;16.33;;;;;;;;;;5114232;28;20208;-90
2023/02/25 06:25:28;;;;;;;20.20;14.20;;;;;;;;;;5102114;28;20300;-88
2023/02/25 06:27:55;;;;;;;19.67;14.40;;;;;;;;;;5108089;28;20206;-89
2023/02/25 06:30:22;;;;;;;23.83;17.83;;;;;;;;;;5103641;28;20239;-90
2023/02/25 06:32:49;;;;;;;25.83;21.40;;;;;;;;;;5103272;28;20207;-92
2023/02/25 06:35:17;;;;;;;34.40;23.87;;;;;;;;;;5113950;28;20211;-90
2023/02/25 06:37:43;;;;;;;45.87;27.80;;;;;;;;;;5113844;28;20641;-92
2023/02/25 06:40:13;;;;;;;39.80;23.93;;;;;;;;;;5100335;28;20211;-92
2023/02/25 06:42:41;;;;;;;27.93;20.40;;;;;;;;;;5103862;28;20204;-92
2023/02/25 06:45:09;;;;;;;24.83;17.33;;;;;;;;;;5110964;28;20211;-90
2023/02/25 06:47:35;;;;;;;29.47;21.20;;;;;;;;;;5102709;28;20705;-92
2023/02/25 06:50:02;;;;;;;29.23;21.67;;;;;;;;;;5107068;28;20640;-91
2023/02/25 06:52:29;;;;;;;23.80;17.90;;;;;;;;;;5104594;28;20669;-89
2023/02/25 06:54:56;;;;;;;28.53;20.03;;;;;;;;;;5112857;28;20686;-90
2023/02/25 06:57:22;;;;;;;31.50;24.40;;;;;;;;;;5113268;28;20211;-89
2023/02/25 06:59:52;;;;;;;28.23;22.33;;;;;;;;;;5095535;28;20204;-91
2023/02/25 07:02:19;;;;;;;28.07;20.23;;;;;;;;;;5103742;28;20261;-88
2023/02/25 07:04:46;;;;;;;30.80;21.43;;;;;;;;;;5112549;28;20207;-87
2023/02/25 07:07:12;;;;;;;41.33;32.17;;;;;;;;;;5100032;28;20215;-86
2023/02/25 07:09:39;;;;;;;31.70;23.83;;;;;;;;;;5097024;28;20670;-87
2023/02/25 07:12:06;;;;;;;33.17;28.63;;;;;;;;;;5098735;28;20257;-84
2023/02/25 07:14:33;;;;;;;28.73;24.63;;;;;;;;;;5103970;28;20204;-83
2023/02/25 07:17:01;;;;;;;26.13;20.47;;;;;;;;;;5106692;28;20207;-83
2023/02/25 07:19:28;;;;;;;31.27;18.43;;;;;;;;;;5111715;28;20211;-83
2023/02/25 07:21:55;;;;;;;27.00;15.37;;;;;;;;;;5108824;28;20290;-83
2023/02/25 07:24:22;;;;;;;22.63;15.50;;;;;;;;;;5111939;28;20207;-83
2023/02/25 07:26:49;;;;;;;25.03;15.67;;;;;;;;;;5111095;28;20203;-83
2023/02/25 07:29:19;;;;;;;22.20;14.70;;;;;;;;;;5111809;28;20203;-84
2023/02/25 07:31:46;;;;;;;20.97;15.33;;;;;;;;;;5111585;28;20195;-83
2023/02/25 07:34:18;;;;;;;21.40;16.47;;;;;;;;;;5098008;28;20200;-84
2023/02/25 07:36:45;;;;;;;22.23;15.93;;;;;;;;;;5111370;28;20203;-83
2023/02/25 07:39:12;;;;;;;20.60;15.03;;;;;;;;;;5096464;28;20586;-83
2023/02/25 07:41:39;;;;;;;28.03;19.50;;;;;;;;;;5098719;28;20227;-84
2023/02/25 07:44:08;;;;;;;24.93;15.93;;;;;;;;;;5111002;28;20738;-83
2023/02/25 07:46:35;;;;;;;24.20;15.97;;;;;;;;;;5110987;28;20287;-84
2023/02/25 07:49:02;;;;;;;23.33;15.30;;;;;;;;;;5097262;28;20200;-84
2023/02/25 07:51:31;;;;;;;18.47;14.63;;;;;;;;;;5110935;28;20192;-83
2023/02/25 07:53:58;;;;;;;23.03;16.30;;;;;;;;;;5108299;28;20256;-84
2023/02/25 07:56:26;;;;;;;20.87;14.90;;;;;;;;;;5090885;28;20226;-84
2023/02/25 07:58:53;;;;;;;26.07;16.03;;;;;;;;;;5090655;28;20675;-83
2023/02/25 08:01:24;;;;;;;27.30;16.83;;;;;;;;;;5090884;28;20228;-84
2023/02/25 08:03:51;;;;;;;20.23;14.57;;;;;;;;;;5104549;28;20203;-82
2023/02/25 08:06:18;;;;;;;31.13;19.33;;;;;;;;;;5101666;28;20195;-83
2023/02/25 08:08:49;;;;;;;23.10;15.23;;;;;;;;;;5109150;28;20643;-84
2023/02/25 08:11:18;;;;;;;28.27;19.50;;;;;;;;;;5094089;28;20204;-84
2023/02/25 08:13:45;;;;;;;31.27;20.87;;;;;;;;;;5096335;28;20200;-84
2023/02/25 08:16:13;;;;;;;27.23;16.77;;;;;;;;;;5106630;28;20674;-84
2023/02/25 08:18:41;;;;;;;23.90;14.53;;;;;;;;;;5109408;28;20207;-83
2023/02/25 08:21:09;;;;;;;22.83;15.90;;;;;;;;;;5115190;28;20250;-83
2023/02/25 08:23:35;;;;;;;26.73;18.33;;;;;;;;;;5112107;28;20199;-83
2023/02/25 08:26:04;;;;;;;24.43;15.93;;;;;;;;;;5094447;28;20204;-83
2023/02/25 08:28:32;;;;;;;21.07;14.43;;;;;;;;;;5107842;28;20738;-83
2023/02/25 08:31:01;;;;;;;32.60;19.27;;;;;;;;;;5104840;28;20214;-83
2023/02/25 08:33:28;;;;;;;27.43;17.40;;;;;;;;;;5096703;28;20287;-83
2023/02/25 08:35:55;;;;;;;28.17;18.63;;;;;;;;;;5094244;28;20207;-84
2023/02/25 08:38:22;;;;;;;29.03;17.03;;;;;;;;;;5112204;28;20203;-83
2023/02/25 08:40:50;;;;;;;23.10;16.67;;;;;;;;;;5102607;28;20602;-83
2023/02/25 08:43:18;;;;;;;32.07;19.47;;;;;;;;;;5107891;28;20196;-83
2023/02/25 08:45:45;;;;;;;43.37;27.67;;;;;;;;;;5093979;28;20204;-84
2023/02/25 08:48:12;;;;;;;31.67;18.77;;;;;;;;;;5093900;28;20277;-83
2023/02/25 08:50:39;;;;;;;25.77;16.20;;;;;;;;;;5106435;28;20200;-83
2023/02/25 08:53:06;;;;;;;22.90;15.40;;;;;;;;;;5108101;28;20204;-83
2023/02/25 08:55:35;;;;;;;27.57;15.20;;;;;;;;;;5106824;28;20244;-83
2023/02/25 08:58:02;;;;;;;28.30;15.40;;;;;;;;;;5093784;28;20196;-84
2023/02/25 09:00:33;;;;;;;23.53;14.63;;;;;;;;;;5106994;28;20208;-83
2023/02/25 09:02:59;;;;;;;21.97;14.57;;;;;;;;;;5093570;28;20228;-83
2023/02/25 09:05:27;;;;;;;21.80;15.10;;;;;;;;;;5093717;28;20254;-83
2023/02/25 09:07:54;;;;;;;37.97;23.77;;;;;;;;;;5093447;28;20728;-83
2023/02/25 09:10:21;;;;;;;36.93;24.93;;;;;;;;;;5093475;28;20675;-84
2023/02/25 09:12:48;;;;;;;66.87;41.03;;;;;;;;;;5093714;28;20209;-83
2023/02/25 09:15:15;;;;;;;51.70;34.47;;;;;;;;;;5093791;28;20239;-83
2023/02/25 09:17:43;;;;;;;21.43;12.67;;;;;;;;;;5105851;28;20201;-87
2023/02/25 09:20:11;;;;;;;18.87;11.60;;;;;;;;;;5093705;28;20257;-83
2023/02/25 09:22:38;;;;;;;18.60;10.97;;;;;;;;;;5101588;28;20219;-83
2023/02/25 09:25:06;;;;;;;17.57;12.73;;;;;;;;;;5099714;28;20215;-83
2023/02/25 09:27:33;;;;;;;15.10;11.30;;;;;;;;;;5104585;28;20690;-82
2023/02/25 09:29:59;;;;;;;21.67;15.53;;;;;;;;;;5093307;28;20200;-83
2023/02/25 09:32:26;;;;;;;30.30;19.43;;;;;;;;;;5102046;28;20201;-83
2023/02/25 09:34:54;;;;;;;18.80;12.00;;;;;;;;;;5111385;28;20232;-84
2023/02/25 09:37:22;;;;;;;18.87;13.00;;;;;;;;;;5101964;28;20203;-83
2023/02/25 09:39:48;;;;;;;28.30;19.53;;;;;;;;;;5096757;28;20289;-83
2023/02/25 09:42:19;;;;;;;43.13;23.80;;;;;;;;;;5092934;28;20245;-83
2023/02/25 09:44:47;;;;;;;28.97;23.93;;;;;;;;;;5109404;28;20645;-83
2023/02/25 09:47:18;;;;;;;27.73;19.77;;;;;;;;;;5102442;28;20231;-84
2023/02/25 09:49:47;;;;;;;22.27;16.57;;;;;;;;;;5097178;28;20592;-84
2023/02/25 09:52:18;;;;;;;22.40;15.53;;;;;;;;;;5112847;28;20590;-86
2023/02/25 09:54:46;;;;;;;29.97;23.17;;;;;;;;;;5106401;28;20598;-84
2023/02/25 09:57:17;;;;;;;23.57;19.73;;;;;;;;;;5105971;28;20381;-82
2023/02/25 09:59:44;;;;;;;22.77;16.10;;;;;;;;;;5092560;28;20204;-82
2023/02/25 10:02:21;;;;;;;20.13;13.53;;;;;;;;;;5092666;28;20289;-83
2023/02/25 10:04:54;;;;;;;21.47;13.80;;;;;;;;;;5112496;28;20209;-83
2023/02/25 10:07:25;;;;;;;19.70;12.83;;;;;;;;;;5096112;28;20231;-83
2023/02/25 10:09:57;;;;;;;17.87;12.73;;;;;;;;;;5092332;28;20197;-82
2023/02/25 10:12:30;;;;;;;31.53;16.47;;;;;;;;;;5095888;28;20215;-83
2023/02/25 10:15:22;;;;;;;20.63;14.20;;;;;;;;;;5112346;28;20196;-83
2023/02/25 10:18:01;;;;;;;19.27;11.20;;;;;;;;;;5092593;28;20201;-83
2023/02/25 10:20:40;;;;;;;26.30;16.67;;;;;;;;;;5091907;28;20193;-82
2023/02/25 10:23:16;;;;;;;17.10;10.53;;;;;;;;;;5092276;28;20229;-83
2023/02/25 10:25:48;;;;;;;21.60;14.70;;;;;;;;;;5091871;28;20196;-83
2023/02/25 10:28:17;;;;;;;27.80;18.10;;;;;;;;;;5105783;28;20199;-84
2023/02/25 10:30:49;;;;;;;24.10;16.87;;;;;;;;;;5104256;28;20196;-83
2023/02/25 10:33:20;;;;;;;15.73;11.60;;;;;;;;;;5106578;28;20207;-83
2023/02/25 10:35:50;;;;;;;24.83;16.40;;;;;;;;;;5102968;28;20759;-83
2023/02/25 10:38:18;;;;;;;15.23;11.63;;;;;;;;;;5091777;28;20201;-87
2023/02/25 10:40:45;;;;;;;23.67;12.23;;;;;;;;;;5091779;28;20600;-82
2023/02/25 10:43:20;;;;;;;16.03;10.57;;;;;;;;;;5108289;28;20721;-82
2023/02/25 10:45:50;;;;;;;18.97;10.90;;;;;;;;;;5112297;28;20195;-83
2023/02/25 10:48:19;;;;;;;29.43;19.43;;;;;;;;;;5092958;28;20710;-83
2023/02/25 10:51:02;;;;;;;23.67;12.77;;;;;;;;;;5104485;28;20252;-82
2023/02/25 10:53:30;;;;;;;19.53;14.50;;;;;;;;;;5103713;28;20220;-83
2023/02/25 10:55:58;;;;;;;20.73;15.20;;;;;;;;;;5106885;28;20200;-82
2023/02/25 10:58:32;;;;;;;22.60;15.07;;;;;;;;;;5111558;28;20253;-82
2023/02/25 11:01:02;;;;;;;22.20;17.07;;;;;;;;;;5108316;28;20743;-82
2023/02/25 11:03:30;;;;;;;18.50;12.13;;;;;;;;;;5101781;28;20605;-82
2023/02/25 11:06:14;;;;;;;26.00;11.93;;;;;;;;;;5111282;28;20252;-82
2023/02/25 11:08:43;;;;;;;16.73;10.43;;;;;;;;;;5096907;28;20212;-82
2023/02/25 11:11:15;;;;;;;22.03;10.60;;;;;;;;;;5091475;28;20209;-83
2023/02/25 11:13:42;;;;;;;13.87;9.97;;;;;;;;;;5105013;28;20289;-82
2023/02/25 11:16:12;;;;;;;18.17;10.20;;;;;;;;;;5091051;28;20666;-83
2023/02/25 11:18:39;;;;;;;19.57;9.63;;;;;;;;;;5104554;28;20203;-82
2023/02/25 11:21:08;;;;;;;21.87;9.90;;;;;;;;;;5090969;28;20345;-82
2023/02/25 11:23:36;;;;;;;19.13;12.23;;;;;;;;;;5104687;28;20227;-81
2023/02/25 11:26:06;;;;;;;18.53;10.80;;;;;;;;;;5091150;28;20262;-82
2023/02/25 11:28:38;;;;;;;34.07;19.43;;;;;;;;;;5107382;28;20697;-83
2023/02/25 11:31:11;;;;;;;59.87;31.23;;;;;;;;;;5100493;28;20206;-84
2023/02/25 11:33:42;;;;;;;34.93;24.13;;;;;;;;;;5096177;28;20192;-83
2023/02/25 11:36:10;;;;;;;43.83;26.23;;;;;;;;;;5099272;28;20200;-82
2023/02/25 11:38:38;;;;;;;30.60;21.73;;;;;;;;;;5091037;28;20572;-83
2023/02/25 11:41:15;;;;;;;27.63;16.67;;;;;;;;;;5103152;28;20615;-83
2023/02/25 11:43:42;;;;;;;17.20;9.40;;;;;;;;;;5113129;28;20724;-83
2023/02/25 11:46:12;;;;;;;15.03;12.27;;;;;;;;;;5114790;28;20199;-83
2023/02/25 11:48:49;;;;;;;18.23;10.20;;;;;;;;;;5102604;28;20743;-82
2023/02/25 11:51:25;;;;;;;36.63;22.23;;;;;;;;;;5114994;28;20628;-82
2023/02/25 11:54:18;;;;;;;20.00;11.20;;;;;;;;;;5105011;28;20283;-83
2023/02/25 11:56:50;;;;;;;23.20;12.20;;;;;;;;;;5092335;28;20281;-83
2023/02/25 11:59:29;;;;;;;30.40;17.60;;;;;;;;;;5110518;28;20253;-83
2023/02/25 12:02:26;;;;;;;14.20;8.40;;;;;;;;;;5104834;28;20315;-82
2023/02/25 12:05:15;;;;;;;20.20;10.50;;;;;;;;;;5102339;28;20198;-83
2023/02/25 12:08:03;;;;;;;17.57;10.80;;;;;;;;;;5101679;28;20203;-82
2023/02/25 12:10:46;;;;;;;12.40;7.20;;;;;;;;;;5100330;28;20301;-82
2023/02/25 12:13:29;;;;;;;19.40;8.23;;;;;;;;;;5094400;28;20202;-82
2023/02/25 12:16:24;;;;;;;29.43;12.10;;;;;;;;;;5108237;28;20206;-82
2023/02/25 12:19:37;;;;;;;15.17;9.20;;;;;;;;;;5072152;28;20196;-81
2023/02/25 12:22:16;;;;;;;21.40;11.10;;;;;;;;;;5018445;28;20227;-82
2023/02/25 12:25:09;;;;;;;26.97;21.10;;;;;;;;;;5079341;28;20207;-82
2023/02/25 12:27:59;;;;;;;16.20;10.27;;;;;;;;;;5114511;28;20277;-82
2023/02/25 12:30:59;;;;;;;13.80;9.17;;;;;;;;;;5100601;28;20260;-82
2023/02/25 12:33:50;;;;;;;24.60;15.00;;;;;;;;;;5100593;28;20199;-82
2023/02/25 12:36:30;;;;;;;27.90;21.97;;;;;;;;;;5107001;28;20206;-82
2023/02/25 12:39:28;;;;;;;12.97;9.13;;;;;;;;;;5105979;28;20203;-83
2023/02/25 12:42:03;;;;;;;24.07;13.73;;;;;;;;;;5093010;28;20210;-83
2023/02/25 12:45:01;;;;;;;17.70;11.17;;;;;;;;;;5109034;28;20202;-82
2023/02/25 12:47:45;;;;;;;128.20;84.60;;;;;;;;;;5114237;28;20334;-82
2023/02/25 12:50:35;;;;;;;16.33;10.93;;;;;;;;;;5093552;28;20631;-82
2023/02/25 12:53:23;;;;;;;17.33;9.60;;;;;;;;;;5098373;28;20213;-82
2023/02/25 12:56:17;;;;;;;43.63;26.40;;;;;;;;;;5100009;28;20329;-83
2023/02/25 12:58:49;;;;;;;41.33;26.37;;;;;;;;;;5102605;28;20200;-83
2023/02/25 13:01:43;;;;;;;40.50;31.97;;;;;;;;;;5094602;28;20254;-82
2023/02/25 13:04:43;;;;;;;21.80;19.10;;;;;;;;;;5068092;28;20316;-82
2023/02/25 13:07:34;;;;;;;12.03;9.03;;;;;;;;;;5080143;28;20269;-82
2023/02/25 13:10:09;;;;;;;21.97;11.83;;;;;;;;;;5102632;28;20282;-82
2023/02/25 13:12:56;;;;;;;17.43;12.07;;;;;;;;;;5093672;28;20281;-82
2023/02/25 13:15:32;;;;;;;13.37;7.97;;;;;;;;;;5106801;28;20214;-82
2023/02/25 13:18:19;;;;;;;21.27;15.33;;;;;;;;;;5103392;28;20661;-82
2023/02/25 13:21:07;;;;;;;17.93;9.37;;;;;;;;;;5099215;28;20201;-82
2023/02/25 13:23:52;;;;;;;18.83;12.97;;;;;;;;;;5097984;28;20230;-82
2023/02/25 13:26:34;;;;;;;13.63;9.27;;;;;;;;;;5093116;28;20226;-83
2023/02/25 13:29:11;;;;;;;64.50;28.27;;;;;;;;;;5093090;28;20625;-83
2023/02/25 13:31:46;;;;;;;23.30;12.83;;;;;;;;;;5092775;28;20701;-83
2023/02/25 13:34:25;;;;;;;21.93;11.00;;;;;;;;;;5103057;28;20262;-82
2023/02/25 13:37:01;;;;;;;17.73;10.17;;;;;;;;;;5108008;28;20696;-82
2023/02/25 13:39:50;;;;;;;36.83;19.53;;;;;;;;;;5105594;28;20200;-83
2023/02/25 13:42:42;;;;;;;15.80;12.33;;;;;;;;;;5092514;28;20295;-82
2023/02/25 13:45:29;;;;;;;19.20;10.17;;;;;;;;;;5109474;28;20587;-82
2023/02/25 13:48:16;;;;;;;16.97;11.90;;;;;;;;;;5113555;28;20227;-83
2023/02/25 13:50:55;;;;;;;17.17;10.23;;;;;;;;;;5112946;28;20256;-82
2023/02/25 13:54:06;;;;;;;27.03;16.00;;;;;;;;;;5100153;28;20207;-82
2023/02/25 13:56:45;;;;;;;25.60;13.67;;;;;;;;;;5099192;28;20273;-82
2023/02/25 13:59:19;;;;;;;19.30;8.77;;;;;;;;;;5092403;28;20202;-82
2023/02/25 14:02:01;;;;;;;29.67;19.90;;;;;;;;;;5092208;28;20196;-82
2023/02/25 14:04:50;;;;;;;33.23;23.37;;;;;;;;;;5097544;28;20254;-83
2023/02/25 14:07:38;;;;;;;41.23;20.43;;;;;;;;;;5096673;28;20204;-82
2023/02/25 14:10:20;;;;;;;58.80;40.20;;;;;;;;;;5103733;28;20210;-82
2023/02/25 14:13:01;;;;;;;53.63;35.00;;;;;;;;;;5112666;28;20202;-82
2023/02/25 14:15:35;;;;;;;81.67;53.63;;;;;;;;;;5112266;28;20223;-82
2023/02/25 14:18:29;;;;;;;47.53;31.90;;;;;;;;;;5102816;28;20205;-82
2023/02/25 14:21:06;;;;;;;30.83;18.70;;;;;;;;;;5092486;28;20676;-82
2023/02/25 14:23:43;;;;;;;29.50;18.43;;;;;;;;;;5093700;28;20722;-82
2023/02/25 14:26:24;;;;;;;35.77;23.67;;;;;;;;;;5102063;28;20235;-82
2023/02/25 14:29:01;;;;;;;35.67;23.37;;;;;;;;;;5105440;28;20206;-82
2023/02/25 14:31:34;;;;;;;44.93;23.33;;;;;;;;;;5092835;28;20627;-82
2023/02/25 14:34:11;;;;;;;25.40;14.90;;;;;;;;;;5112106;28;20225;-83
2023/02/25 14:37:02;;;;;;;57.83;34.03;;;;;;;;;;5112191;28;20195;-82
2023/02/25 14:39:37;;;;;;;30.33;22.50;;;;;;;;;;5111926;28;20199;-82
2023/02/25 14:42:39;;;;;;;51.27;28.27;;;;;;;;;;5099923;28;20558;-82
2023/02/25 14:45:19;;;;;;;37.00;24.43;;;;;;;;;;5091426;28;20205;-82
2023/02/25 14:47:50;;;;;;;67.53;36.17;;;;;;;;;;5106649;28;20233;-83